Terminal Aerodrome Forecast
Issued by NWS

Home | Current Version | Previous Version | Text Only | Print | Product List | Glossary On
Versions: 1 2 3 4 5 6 7 8 9 10 11 12 13 14 15
000
FTUS41 KGYX 290521
TAFHIE
TAF
KHIE 290521Z 2906/3006 VRB04KT P6SM BKN025
     FM290900 00000KT 1/4SM FG VV001
     FM291300 31003KT P6SM FEW001 SCT250=

USA.gov is the U.S. government's official web portal to all federal, state and local government web resources and services.